sensor_id;sensor_type;location;lat;lon;timestamp;P1;durP1;ratioP1;P2;durP2;ratioP2
40945;SDS011;55635;50.264;11.918;2023-01-24T00:00:11;32.15;;;13.60;;
40945;SDS011;55635;50.264;11.918;2023-01-24T00:02:52;31.55;;;14.32;;
40945;SDS011;55635;50.264;11.918;2023-01-24T00:05:33;29.52;;;13.82;;
40945;SDS011;55635;50.264;11.918;2023-01-24T00:08:15;29.73;;;14.00;;
40945;SDS011;55635;50.264;11.918;2023-01-24T00:11:05;29.45;;;13.20;;
40945;SDS011;55635;50.264;11.918;2023-01-24T00:13:49;28.83;;;13.95;;
40945;SDS011;55635;50.264;11.918;2023-01-24T00:16:31;31.10;;;14.27;;
40945;SDS011;55635;50.264;11.918;2023-01-24T00:19:12;37.67;;;14.68;;
40945;SDS011;55635;50.264;11.918;2023-01-24T00:21:53;34.15;;;13.90;;
40945;SDS011;55635;50.264;11.918;2023-01-24T00:24:34;33.58;;;14.07;;
40945;SDS011;55635;50.264;11.918;2023-01-24T00:27:16;35.63;;;13.65;;
40945;SDS011;55635;50.264;11.918;2023-01-24T00:29:57;35.60;;;14.27;;
40945;SDS011;55635;50.264;11.918;2023-01-24T00:32:39;35.95;;;16.33;;
40945;SDS011;55635;50.264;11.918;2023-01-24T00:35:20;37.97;;;16.45;;
40945;SDS011;55635;50.264;11.918;2023-01-24T00:38:01;39.25;;;15.65;;
40945;SDS011;55635;50.264;11.918;2023-01-24T00:40:42;37.92;;;15.02;;
40945;SDS011;55635;50.264;11.918;2023-01-24T00:43:24;30.85;;;13.93;;
40945;SDS011;55635;50.264;11.918;2023-01-24T00:46:08;29.05;;;13.68;;
40945;SDS011;55635;50.264;11.918;2023-01-24T00:48:49;33.35;;;14.80;;
40945;SDS011;55635;50.264;11.918;2023-01-24T00:51:30;37.92;;;13.73;;
40945;SDS011;55635;50.264;11.918;2023-01-24T00:54:11;31.92;;;13.98;;
40945;SDS011;55635;50.264;11.918;2023-01-24T00:56:53;32.85;;;12.98;;
40945;SDS011;55635;50.264;11.918;2023-01-24T00:59:34;33.80;;;14.73;;
40945;SDS011;55635;50.264;11.918;2023-01-24T01:02:18;32.28;;;14.18;;
40945;SDS011;55635;50.264;11.918;2023-01-24T01:04:59;36.15;;;13.75;;
40945;SDS011;55635;50.264;11.918;2023-01-24T01:07:40;28.20;;;13.80;;
40945;SDS011;55635;50.264;11.918;2023-01-24T01:10:21;26.30;;;13.02;;
40945;SDS011;55635;50.264;11.918;2023-01-24T01:13:04;30.92;;;12.57;;
40945;SDS011;55635;50.264;11.918;2023-01-24T01:15:46;34.33;;;14.00;;
40945;SDS011;55635;50.264;11.918;2023-01-24T01:18:27;30.08;;;12.80;;
40945;SDS011;55635;50.264;11.918;2023-01-24T01:21:09;29.80;;;12.40;;
40945;SDS011;55635;50.264;11.918;2023-01-24T01:23:54;32.95;;;13.20;;
40945;SDS011;55635;50.264;11.918;2023-01-24T01:26:37;32.47;;;13.35;;
40945;SDS011;55635;50.264;11.918;2023-01-24T01:29:18;33.60;;;14.25;;
40945;SDS011;55635;50.264;11.918;2023-01-24T01:31:59;34.10;;;12.98;;
40945;SDS011;55635;50.264;11.918;2023-01-24T01:34:40;32.58;;;12.75;;
40945;SDS011;55635;50.264;11.918;2023-01-24T01:37:22;32.67;;;13.00;;
40945;SDS011;55635;50.264;11.918;2023-01-24T01:40:03;28.05;;;12.13;;
40945;SDS011;55635;50.264;11.918;2023-01-24T01:42:48;31.75;;;11.93;;
40945;SDS011;55635;50.264;11.918;2023-01-24T01:51:16;37.45;;;13.80;;
40945;SDS011;55635;50.264;11.918;2023-01-24T01:54:30;31.00;;;12.63;;
40945;SDS011;55635;50.264;11.918;2023-01-24T01:57:18;33.28;;;13.27;;
40945;SDS011;55635;50.264;11.918;2023-01-24T02:00:05;35.33;;;14.30;;
40945;SDS011;55635;50.264;11.918;2023-01-24T02:02:55;32.97;;;13.48;;
40945;SDS011;55635;50.264;11.918;2023-01-24T02:06:02;33.27;;;13.10;;
40945;SDS011;55635;50.264;11.918;2023-01-24T02:08:52;31.67;;;13.15;;
40945;SDS011;55635;50.264;11.918;2023-01-24T02:11:35;36.33;;;13.45;;
40945;SDS011;55635;50.264;11.918;2023-01-24T02:14:18;32.72;;;12.55;;
40945;SDS011;55635;50.264;11.918;2023-01-24T02:17:32;34.03;;;13.90;;
40945;SDS011;55635;50.264;11.918;2023-01-24T02:26:23;33.72;;;14.70;;
40945;SDS011;55635;50.264;11.918;2023-01-24T02:29:09;28.77;;;12.50;;
40945;SDS011;55635;50.264;11.918;2023-01-24T02:31:57;28.67;;;12.60;;
40945;SDS011;55635;50.264;11.918;2023-01-24T02:34:41;34.40;;;13.98;;
40945;SDS011;55635;50.264;11.918;2023-01-24T02:37:23;28.63;;;13.05;;
40945;SDS011;55635;50.264;11.918;2023-01-24T02:40:05;31.98;;;12.25;;
40945;SDS011;55635;50.264;11.918;2023-01-24T02:42:49;33.42;;;14.43;;
40945;SDS011;55635;50.264;11.918;2023-01-24T02:45:31;29.33;;;11.20;;
40945;SDS011;55635;50.264;11.918;2023-01-24T02:48:15;30.73;;;12.38;;
40945;SDS011;55635;50.264;11.918;2023-01-24T02:50:56;27.42;;;12.80;;
40945;SDS011;55635;50.264;11.918;2023-01-24T02:53:56;28.00;;;12.75;;
40945;SDS011;55635;50.264;11.918;2023-01-24T02:56:37;25.58;;;11.60;;
40945;SDS011;55635;50.264;11.918;2023-01-24T02:59:38;28.83;;;11.43;;
40945;SDS011;55635;50.264;11.918;2023-01-24T03:02:19;32.58;;;13.00;;
40945;SDS011;55635;50.264;11.918;2023-01-24T03:05:01;27.50;;;11.80;;
40945;SDS011;55635;50.264;11.918;2023-01-24T03:07:42;28.20;;;12.05;;
40945;SDS011;55635;50.264;11.918;2023-01-24T03:10:30;28.88;;;12.00;;
40945;SDS011;55635;50.264;11.918;2023-01-24T03:13:13;23.70;;;10.88;;
40945;SDS011;55635;50.264;11.918;2023-01-24T03:19:12;23.92;;;10.70;;
40945;SDS011;55635;50.264;11.918;2023-01-24T03:22:12;21.02;;;10.68;;
40945;SDS011;55635;50.264;11.918;2023-01-24T03:31:11;20.23;;;9.43;;
40945;SDS011;55635;50.264;11.918;2023-01-24T03:34:11;21.35;;;9.60;;
40945;SDS011;55635;50.264;11.918;2023-01-24T03:37:15;18.98;;;9.40;;
40945;SDS011;55635;50.264;11.918;2023-01-24T03:40:18;24.83;;;11.57;;
40945;SDS011;55635;50.264;11.918;2023-01-24T03:43:01;19.23;;;9.35;;
40945;SDS011;55635;50.264;11.918;2023-01-24T03:45:51;20.75;;;9.88;;
40945;SDS011;55635;50.264;11.918;2023-01-24T03:48:46;22.88;;;9.98;;
40945;SDS011;55635;50.264;11.918;2023-01-24T03:51:28;22.98;;;10.43;;
40945;SDS011;55635;50.264;11.918;2023-01-24T03:54:28;24.00;;;10.45;;
40945;SDS011;55635;50.264;11.918;2023-01-24T03:57:17;23.55;;;11.15;;
40945;SDS011;55635;50.264;11.918;2023-01-24T03:59:59;22.10;;;9.90;;
40945;SDS011;55635;50.264;11.918;2023-01-24T04:02:41;20.30;;;10.15;;
40945;SDS011;55635;50.264;11.918;2023-01-24T04:05:23;20.42;;;9.80;;
40945;SDS011;55635;50.264;11.918;2023-01-24T04:08:04;21.27;;;9.05;;
40945;SDS011;55635;50.264;11.918;2023-01-24T04:10:45;20.02;;;10.30;;
40945;SDS011;55635;50.264;11.918;2023-01-24T04:13:27;18.58;;;9.27;;
40945;SDS011;55635;50.264;11.918;2023-01-24T04:16:09;17.13;;;9.25;;
40945;SDS011;55635;50.264;11.918;2023-01-24T04:19:02;16.67;;;9.77;;
40945;SDS011;55635;50.264;11.918;2023-01-24T04:21:43;14.98;;;8.63;;
40945;SDS011;55635;50.264;11.918;2023-01-24T04:24:25;17.30;;;7.85;;
40945;SDS011;55635;50.264;11.918;2023-01-24T04:27:07;18.40;;;9.10;;
40945;SDS011;55635;50.264;11.918;2023-01-24T04:30:15;17.33;;;8.32;;
40945;SDS011;55635;50.264;11.918;2023-01-24T04:33:01;16.30;;;7.32;;
40945;SDS011;55635;50.264;11.918;2023-01-24T04:35:42;16.73;;;8.55;;
40945;SDS011;55635;50.264;11.918;2023-01-24T04:38:24;16.33;;;8.77;;
40945;SDS011;55635;50.264;11.918;2023-01-24T04:41:15;17.15;;;8.85;;
40945;SDS011;55635;50.264;11.918;2023-01-24T04:43:57;19.67;;;9.82;;
40945;SDS011;55635;50.264;11.918;2023-01-24T04:46:38;16.98;;;9.25;;
40945;SDS011;55635;50.264;11.918;2023-01-24T04:49:20;18.00;;;9.25;;
40945;SDS011;55635;50.264;11.918;2023-01-24T04:52:03;15.70;;;8.88;;
40945;SDS011;55635;50.264;11.918;2023-01-24T04:54:58;18.75;;;10.00;;
40945;SDS011;55635;50.264;11.918;2023-01-24T04:57:39;17.73;;;9.25;;
40945;SDS011;55635;50.264;11.918;2023-01-24T05:00:20;20.65;;;10.05;;
40945;SDS011;55635;50.264;11.918;2023-01-24T05:03:01;21.50;;;9.73;;
40945;SDS011;55635;50.264;11.918;2023-01-24T05:05:42;23.25;;;9.98;;
40945;SDS011;55635;50.264;11.918;2023-01-24T05:08:24;20.75;;;10.07;;
40945;SDS011;55635;50.264;11.918;2023-01-24T05:11:07;17.83;;;8.88;;
40945;SDS011;55635;50.264;11.918;2023-01-24T05:13:55;21.13;;;10.85;;
40945;SDS011;55635;50.264;11.918;2023-01-24T05:16:36;19.63;;;9.93;;
40945;SDS011;55635;50.264;11.918;2023-01-24T05:19:17;22.95;;;10.48;;
40945;SDS011;55635;50.264;11.918;2023-01-24T05:21:59;21.10;;;10.35;;
40945;SDS011;55635;50.264;11.918;2023-01-24T05:24:44;19.10;;;9.98;;
40945;SDS011;55635;50.264;11.918;2023-01-24T05:27:26;18.45;;;9.85;;
40945;SDS011;55635;50.264;11.918;2023-01-24T05:30:12;21.08;;;10.52;;
40945;SDS011;55635;50.264;11.918;2023-01-24T05:32:57;22.45;;;10.85;;
40945;SDS011;55635;50.264;11.918;2023-01-24T05:35:39;24.85;;;11.32;;
40945;SDS011;55635;50.264;11.918;2023-01-24T05:38:21;25.42;;;11.90;;
40945;SDS011;55635;50.264;11.918;2023-01-24T05:41:06;31.63;;;11.98;;
40945;SDS011;55635;50.264;11.918;2023-01-24T05:43:51;22.10;;;10.73;;
40945;SDS011;55635;50.264;11.918;2023-01-24T05:46:36;22.85;;;11.45;;
40945;SDS011;55635;50.264;11.918;2023-01-24T05:49:30;19.83;;;10.02;;
40945;SDS011;55635;50.264;11.918;2023-01-24T05:52:11;26.95;;;12.10;;
40945;SDS011;55635;50.264;11.918;2023-01-24T05:55:01;20.63;;;11.73;;
40945;SDS011;55635;50.264;11.918;2023-01-24T05:57:49;23.00;;;11.50;;
40945;SDS011;55635;50.264;11.918;2023-01-24T06:00:51;24.20;;;11.77;;
40945;SDS011;55635;50.264;11.918;2023-01-24T06:03:48;20.70;;;10.27;;
40945;SDS011;55635;50.264;11.918;2023-01-24T06:06:33;22.05;;;10.65;;
40945;SDS011;55635;50.264;11.918;2023-01-24T06:09:13;23.35;;;11.07;;
40945;SDS011;55635;50.264;11.918;2023-01-24T06:11:54;19.40;;;10.52;;
40945;SDS011;55635;50.264;11.918;2023-01-24T06:14:36;26.52;;;11.93;;
40945;SDS011;55635;50.264;11.918;2023-01-24T06:17:17;24.67;;;10.60;;
40945;SDS011;55635;50.264;11.918;2023-01-24T06:19:58;21.55;;;10.10;;
40945;SDS011;55635;50.264;11.918;2023-01-24T06:22:51;18.40;;;10.07;;
40945;SDS011;55635;50.264;11.918;2023-01-24T06:25:57;18.90;;;9.55;;
40945;SDS011;55635;50.264;11.918;2023-01-24T06:28:38;18.92;;;9.57;;
40945;SDS011;55635;50.264;11.918;2023-01-24T06:31:29;26.65;;;12.02;;
40945;SDS011;55635;50.264;11.918;2023-01-24T06:38:01;18.23;;;9.18;;
40945;SDS011;55635;50.264;11.918;2023-01-24T06:40:42;19.83;;;9.98;;
40945;SDS011;55635;50.264;11.918;2023-01-24T06:43:27;20.38;;;10.02;;
40945;SDS011;55635;50.264;11.918;2023-01-24T06:46:09;18.25;;;9.70;;
40945;SDS011;55635;50.264;11.918;2023-01-24T06:48:52;17.77;;;9.43;;
40945;SDS011;55635;50.264;11.918;2023-01-24T06:51:32;20.38;;;9.63;;
40945;SDS011;55635;50.264;11.918;2023-01-24T06:54:13;16.30;;;8.75;;
40945;SDS011;55635;50.264;11.918;2023-01-24T06:56:56;15.05;;;8.80;;
40945;SDS011;55635;50.264;11.918;2023-01-24T06:59:37;15.20;;;8.07;;
40945;SDS011;55635;50.264;11.918;2023-01-24T07:02:17;16.85;;;8.75;;
40945;SDS011;55635;50.264;11.918;2023-01-24T07:04:58;16.65;;;9.00;;
40945;SDS011;55635;50.264;11.918;2023-01-24T07:07:39;18.02;;;9.90;;
40945;SDS011;55635;50.264;11.918;2023-01-24T07:10:20;23.15;;;11.02;;
40945;SDS011;55635;50.264;11.918;2023-01-24T07:13:01;17.73;;;9.73;;
40945;SDS011;55635;50.264;11.918;2023-01-24T07:15:42;18.38;;;10.05;;
40945;SDS011;55635;50.264;11.918;2023-01-24T07:18:23;19.77;;;10.52;;
40945;SDS011;55635;50.264;11.918;2023-01-24T07:21:05;26.10;;;13.73;;
40945;SDS011;55635;50.264;11.918;2023-01-24T07:23:48;24.88;;;12.93;;
40945;SDS011;55635;50.264;11.918;2023-01-24T07:26:29;25.38;;;12.52;;
40945;SDS011;55635;50.264;11.918;2023-01-24T07:29:11;22.90;;;11.52;;
40945;SDS011;55635;50.264;11.918;2023-01-24T07:31:52;19.30;;;11.43;;
40945;SDS011;55635;50.264;11.918;2023-01-24T07:34:33;26.25;;;12.27;;
40945;SDS011;55635;50.264;11.918;2023-01-24T07:37:13;23.55;;;13.00;;
40945;SDS011;55635;50.264;11.918;2023-01-24T07:39:56;16.75;;;8.43;;
40945;SDS011;55635;50.264;11.918;2023-01-24T07:42:37;16.33;;;9.10;;
40945;SDS011;55635;50.264;11.918;2023-01-24T07:45:18;16.10;;;8.68;;
40945;SDS011;55635;50.264;11.918;2023-01-24T07:48:00;15.27;;;8.80;;
40945;SDS011;55635;50.264;11.918;2023-01-24T07:50:41;14.50;;;7.95;;
40945;SDS011;55635;50.264;11.918;2023-01-24T07:53:22;15.75;;;8.15;;
40945;SDS011;55635;50.264;11.918;2023-01-24T07:56:03;13.68;;;7.95;;
40945;SDS011;55635;50.264;11.918;2023-01-24T07:58:45;15.15;;;8.35;;
40945;SDS011;55635;50.264;11.918;2023-01-24T08:01:26;15.35;;;8.25;;
40945;SDS011;55635;50.264;11.918;2023-01-24T08:04:07;14.38;;;8.98;;
40945;SDS011;55635;50.264;11.918;2023-01-24T08:06:48;11.85;;;7.45;;
40945;SDS011;55635;50.264;11.918;2023-01-24T08:09:48;14.00;;;8.00;;
40945;SDS011;55635;50.264;11.918;2023-01-24T08:12:29;11.30;;;6.75;;
40945;SDS011;55635;50.264;11.918;2023-01-24T08:15:10;12.43;;;7.20;;
40945;SDS011;55635;50.264;11.918;2023-01-24T08:17:51;13.57;;;7.78;;
40945;SDS011;55635;50.264;11.918;2023-01-24T08:20:32;15.00;;;8.15;;
40945;SDS011;55635;50.264;11.918;2023-01-24T08:23:13;13.30;;;8.30;;
40945;SDS011;55635;50.264;11.918;2023-01-24T08:25:56;10.98;;;6.68;;
40945;SDS011;55635;50.264;11.918;2023-01-24T08:28:38;12.88;;;7.13;;
40945;SDS011;55635;50.264;11.918;2023-01-24T08:31:21;11.80;;;6.80;;
40945;SDS011;55635;50.264;11.918;2023-01-24T08:34:02;10.52;;;6.53;;
40945;SDS011;55635;50.264;11.918;2023-01-24T08:36:43;12.25;;;6.95;;
40945;SDS011;55635;50.264;11.918;2023-01-24T08:39:24;12.23;;;6.85;;
40945;SDS011;55635;50.264;11.918;2023-01-24T08:42:05;11.10;;;6.90;;
40945;SDS011;55635;50.264;11.918;2023-01-24T08:44:46;11.32;;;6.43;;
40945;SDS011;55635;50.264;11.918;2023-01-24T08:47:27;9.20;;;5.90;;
40945;SDS011;55635;50.264;11.918;2023-01-24T08:50:08;10.48;;;6.68;;
40945;SDS011;55635;50.264;11.918;2023-01-24T08:52:50;13.15;;;6.78;;
40945;SDS011;55635;50.264;11.918;2023-01-24T08:55:35;12.07;;;7.35;;
40945;SDS011;55635;50.264;11.918;2023-01-24T08:58:16;13.73;;;6.65;;
40945;SDS011;55635;50.264;11.918;2023-01-24T09:00:57;11.50;;;6.65;;
40945;SDS011;55635;50.264;11.918;2023-01-24T09:03:38;13.48;;;7.65;;
40945;SDS011;55635;50.264;11.918;2023-01-24T09:06:19;13.98;;;7.70;;
40945;SDS011;55635;50.264;11.918;2023-01-24T09:09:00;13.52;;;7.60;;
40945;SDS011;55635;50.264;11.918;2023-01-24T09:11:42;14.90;;;8.30;;
40945;SDS011;55635;50.264;11.918;2023-01-24T09:14:24;15.63;;;9.07;;
40945;SDS011;55635;50.264;11.918;2023-01-24T09:17:05;17.27;;;8.90;;
40945;SDS011;55635;50.264;11.918;2023-01-24T09:19:46;14.52;;;8.10;;
40945;SDS011;55635;50.264;11.918;2023-01-24T09:22:26;26.00;;;8.32;;
40945;SDS011;55635;50.264;11.918;2023-01-24T09:25:08;14.52;;;8.27;;
40945;SDS011;55635;50.264;11.918;2023-01-24T09:27:53;18.02;;;8.20;;
40945;SDS011;55635;50.264;11.918;2023-01-24T09:30:34;17.58;;;8.65;;
40945;SDS011;55635;50.264;11.918;2023-01-24T09:33:16;17.67;;;10.52;;
40945;SDS011;55635;50.264;11.918;2023-01-24T09:35:59;14.93;;;7.45;;
40945;SDS011;55635;50.264;11.918;2023-01-24T09:38:42;13.23;;;7.63;;
40945;SDS011;55635;50.264;11.918;2023-01-24T09:44:22;13.07;;;6.97;;
40945;SDS011;55635;50.264;11.918;2023-01-24T09:50:34;12.18;;;6.53;;
40945;SDS011;55635;50.264;11.918;2023-01-24T09:53:31;11.80;;;6.32;;
40945;SDS011;55635;50.264;11.918;2023-01-24T09:59:22;11.40;;;7.72;;
40945;SDS011;55635;50.264;11.918;2023-01-24T10:02:16;14.88;;;8.35;;
40945;SDS011;55635;50.264;11.918;2023-01-24T10:05:00;15.13;;;7.72;;
40945;SDS011;55635;50.264;11.918;2023-01-24T10:10:40;10.13;;;6.72;;
40945;SDS011;55635;50.264;11.918;2023-01-24T10:29:06;13.45;;;8.00;;
40945;SDS011;55635;50.264;11.918;2023-01-24T10:32:11;12.18;;;8.18;;
40945;SDS011;55635;50.264;11.918;2023-01-24T10:35:02;16.35;;;8.20;;
40945;SDS011;55635;50.264;11.918;2023-01-24T10:37:58;16.20;;;8.35;;
40945;SDS011;55635;50.264;11.918;2023-01-24T10:40:48;14.85;;;7.50;;
40945;SDS011;55635;50.264;11.918;2023-01-24T10:50:07;12.38;;;7.18;;
40945;SDS011;55635;50.264;11.918;2023-01-24T10:52:51;15.70;;;7.70;;
40945;SDS011;55635;50.264;11.918;2023-01-24T10:55:33;14.50;;;7.55;;
40945;SDS011;55635;50.264;11.918;2023-01-24T10:58:19;11.80;;;7.30;;
40945;SDS011;55635;50.264;11.918;2023-01-24T11:01:14;15.48;;;8.35;;
40945;SDS011;55635;50.264;11.918;2023-01-24T11:03:59;15.65;;;9.00;;
40945;SDS011;55635;50.264;11.918;2023-01-24T11:07:05;17.05;;;9.15;;
40945;SDS011;55635;50.264;11.918;2023-01-24T11:09:47;13.57;;;8.32;;
40945;SDS011;55635;50.264;11.918;2023-01-24T11:12:27;13.60;;;8.57;;
40945;SDS011;55635;50.264;11.918;2023-01-24T11:15:14;14.15;;;8.15;;
40945;SDS011;55635;50.264;11.918;2023-01-24T11:21:05;11.55;;;7.50;;
40945;SDS011;55635;50.264;11.918;2023-01-24T11:27:03;12.32;;;6.93;;
40945;SDS011;55635;50.264;11.918;2023-01-24T11:36:32;13.83;;;8.20;;
40945;SDS011;55635;50.264;11.918;2023-01-24T11:39:30;15.98;;;9.27;;
40945;SDS011;55635;50.264;11.918;2023-01-24T11:42:39;15.48;;;8.80;;
40945;SDS011;55635;50.264;11.918;2023-01-24T11:52:11;18.17;;;9.63;;
40945;SDS011;55635;50.264;11.918;2023-01-24T11:58:51;15.30;;;9.02;;
40945;SDS011;55635;50.264;11.918;2023-01-24T12:01:50;14.52;;;8.98;;
40945;SDS011;55635;50.264;11.918;2023-01-24T12:14:03;13.98;;;8.73;;
40945;SDS011;55635;50.264;11.918;2023-01-24T12:22:53;13.25;;;8.13;;
40945;SDS011;55635;50.264;11.918;2023-01-24T12:25:38;15.50;;;9.30;;
40945;SDS011;55635;50.264;11.918;2023-01-24T12:28:27;20.30;;;9.50;;
40945;SDS011;55635;50.264;11.918;2023-01-24T12:31:30;17.60;;;10.10;;
40945;SDS011;55635;50.264;11.918;2023-01-24T12:34:49;25.25;;;12.10;;
40945;SDS011;55635;50.264;11.918;2023-01-24T12:41:40;29.40;;;12.85;;
40945;SDS011;55635;50.264;11.918;2023-01-24T12:44:34;29.42;;;13.65;;
40945;SDS011;55635;50.264;11.918;2023-01-24T12:47:43;26.08;;;13.38;;
40945;SDS011;55635;50.264;11.918;2023-01-24T12:50:56;25.38;;;13.15;;
40945;SDS011;55635;50.264;11.918;2023-01-24T12:54:07;28.88;;;14.52;;
40945;SDS011;55635;50.264;11.918;2023-01-24T12:56:59;26.33;;;13.38;;
40945;SDS011;55635;50.264;11.918;2023-01-24T13:00:12;25.70;;;13.25;;
40945;SDS011;55635;50.264;11.918;2023-01-24T13:12:11;25.40;;;12.68;;
40945;SDS011;55635;50.264;11.918;2023-01-24T13:15:03;30.00;;;13.45;;
40945;SDS011;55635;50.264;11.918;2023-01-24T13:21:09;22.65;;;11.82;;
40945;SDS011;55635;50.264;11.918;2023-01-24T13:33:11;23.42;;;11.40;;
40945;SDS011;55635;50.264;11.918;2023-01-24T13:35:57;31.95;;;15.15;;
40945;SDS011;55635;50.264;11.918;2023-01-24T13:38:43;33.35;;;16.10;;
40945;SDS011;55635;50.264;11.918;2023-01-24T13:52:39;21.92;;;11.95;;
40945;SDS011;55635;50.264;11.918;2023-01-24T14:03:31;21.17;;;11.43;;
40945;SDS011;55635;50.264;11.918;2023-01-24T14:06:17;17.52;;;10.32;;
40945;SDS011;55635;50.264;11.918;2023-01-24T14:09:00;21.55;;;11.55;;
40945;SDS011;55635;50.264;11.918;2023-01-24T14:12:01;23.95;;;12.23;;
40945;SDS011;55635;50.264;11.918;2023-01-24T14:15:00;26.77;;;14.77;;
40945;SDS011;55635;50.264;11.918;2023-01-24T14:21:52;40.67;;;18.05;;
40945;SDS011;55635;50.264;11.918;2023-01-24T14:24:55;33.22;;;15.43;;
40945;SDS011;55635;50.264;11.918;2023-01-24T14:28:20;31.20;;;15.65;;
40945;SDS011;55635;50.264;11.918;2023-01-24T14:31:33;29.85;;;14.45;;
40945;SDS011;55635;50.264;11.918;2023-01-24T14:34:19;28.13;;;14.00;;
40945;SDS011;55635;50.264;11.918;2023-01-24T14:37:11;28.42;;;14.57;;
40945;SDS011;55635;50.264;11.918;2023-01-24T14:40:09;24.98;;;13.13;;
40945;SDS011;55635;50.264;11.918;2023-01-24T14:43:06;28.08;;;13.23;;
40945;SDS011;55635;50.264;11.918;2023-01-24T14:45:51;25.92;;;12.52;;
40945;SDS011;55635;50.264;11.918;2023-01-24T14:48:32;30.15;;;13.73;;
40945;SDS011;55635;50.264;11.918;2023-01-24T14:51:17;31.40;;;14.80;;
40945;SDS011;55635;50.264;11.918;2023-01-24T14:54:15;30.27;;;15.18;;
40945;SDS011;55635;50.264;11.918;2023-01-24T14:57:01;31.13;;;15.32;;
40945;SDS011;55635;50.264;11.918;2023-01-24T15:02:54;30.70;;;15.85;;
40945;SDS011;55635;50.264;11.918;2023-01-24T15:05:50;35.90;;;16.63;;
40945;SDS011;55635;50.264;11.918;2023-01-24T15:08:40;41.50;;;17.35;;
40945;SDS011;55635;50.264;11.918;2023-01-24T15:11:22;41.80;;;17.80;;
40945;SDS011;55635;50.264;11.918;2023-01-24T15:14:17;52.03;;;23.83;;
40945;SDS011;55635;50.264;11.918;2023-01-24T15:16:59;50.97;;;22.63;;
40945;SDS011;55635;50.264;11.918;2023-01-24T15:19:40;38.10;;;18.02;;
40945;SDS011;55635;50.264;11.918;2023-01-24T15:22:21;34.13;;;17.35;;
40945;SDS011;55635;50.264;11.918;2023-01-24T15:25:14;34.92;;;17.38;;
40945;SDS011;55635;50.264;11.918;2023-01-24T15:28:10;47.00;;;20.50;;
40945;SDS011;55635;50.264;11.918;2023-01-24T15:31:20;45.58;;;20.77;;
40945;SDS011;55635;50.264;11.918;2023-01-24T15:34:13;42.60;;;20.63;;
40945;SDS011;55635;50.264;11.918;2023-01-24T15:37:00;34.97;;;18.08;;
40945;SDS011;55635;50.264;11.918;2023-01-24T15:39:41;41.63;;;19.08;;
40945;SDS011;55635;50.264;11.918;2023-01-24T15:42:23;41.33;;;19.20;;
40945;SDS011;55635;50.264;11.918;2023-01-24T15:45:23;38.95;;;18.23;;
40945;SDS011;55635;50.264;11.918;2023-01-24T15:48:05;38.92;;;18.70;;
40945;SDS011;55635;50.264;11.918;2023-01-24T15:50:56;41.15;;;19.27;;
40945;SDS011;55635;50.264;11.918;2023-01-24T15:53:46;56.33;;;19.67;;
40945;SDS011;55635;50.264;11.918;2023-01-24T15:56:28;59.42;;;17.23;;
40945;SDS011;55635;50.264;11.918;2023-01-24T15:59:16;72.22;;;17.75;;
40945;SDS011;55635;50.264;11.918;2023-01-24T16:01:59;65.83;;;17.07;;
40945;SDS011;55635;50.264;11.918;2023-01-24T16:04:40;43.70;;;16.98;;
40945;SDS011;55635;50.264;11.918;2023-01-24T16:07:22;45.40;;;15.52;;
40945;SDS011;55635;50.264;11.918;2023-01-24T16:10:04;38.75;;;15.25;;
40945;SDS011;55635;50.264;11.918;2023-01-24T16:12:46;47.03;;;16.27;;
40945;SDS011;55635;50.264;11.918;2023-01-24T16:15:29;56.17;;;16.17;;
40945;SDS011;55635;50.264;11.918;2023-01-24T16:18:10;54.45;;;16.02;;
40945;SDS011;55635;50.264;11.918;2023-01-24T16:20:52;60.70;;;16.08;;
40945;SDS011;55635;50.264;11.918;2023-01-24T16:23:33;60.47;;;15.35;;
40945;SDS011;55635;50.264;11.918;2023-01-24T16:26:24;40.47;;;15.82;;
40945;SDS011;55635;50.264;11.918;2023-01-24T16:29:12;46.53;;;15.70;;
40945;SDS011;55635;50.264;11.918;2023-01-24T16:32:00;55.70;;;15.50;;
40945;SDS011;55635;50.264;11.918;2023-01-24T16:34:41;49.03;;;15.68;;
40945;SDS011;55635;50.264;11.918;2023-01-24T16:37:43;54.15;;;17.45;;
40945;SDS011;55635;50.264;11.918;2023-01-24T16:40:24;39.50;;;15.25;;
40945;SDS011;55635;50.264;11.918;2023-01-24T16:43:05;43.08;;;16.50;;
40945;SDS011;55635;50.264;11.918;2023-01-24T16:45:49;38.05;;;15.43;;
40945;SDS011;55635;50.264;11.918;2023-01-24T16:48:31;45.97;;;15.50;;
40945;SDS011;55635;50.264;11.918;2023-01-24T16:51:13;48.00;;;16.63;;
40945;SDS011;55635;50.264;11.918;2023-01-24T16:53:55;38.88;;;16.08;;
40945;SDS011;55635;50.264;11.918;2023-01-24T16:56:37;76.30;;;20.70;;
40945;SDS011;55635;50.264;11.918;2023-01-24T16:59:18;59.72;;;18.17;;
40945;SDS011;55635;50.264;11.918;2023-01-24T17:01:59;40.38;;;17.83;;
40945;SDS011;55635;50.264;11.918;2023-01-24T17:04:40;50.95;;;19.55;;
40945;SDS011;55635;50.264;11.918;2023-01-24T17:07:22;57.33;;;18.98;;
40945;SDS011;55635;50.264;11.918;2023-01-24T17:10:03;55.45;;;20.17;;
40945;SDS011;55635;50.264;11.918;2023-01-24T17:12:46;49.15;;;19.60;;
40945;SDS011;55635;50.264;11.918;2023-01-24T17:15:27;61.85;;;20.67;;
40945;SDS011;55635;50.264;11.918;2023-01-24T17:18:08;49.42;;;20.23;;
40945;SDS011;55635;50.264;11.918;2023-01-24T17:20:50;63.10;;;20.85;;
40945;SDS011;55635;50.264;11.918;2023-01-24T17:23:34;72.10;;;24.33;;
40945;SDS011;55635;50.264;11.918;2023-01-24T17:26:17;100.78;;;31.23;;
40945;SDS011;55635;50.264;11.918;2023-01-24T17:28:58;62.63;;;21.20;;
40945;SDS011;55635;50.264;11.918;2023-01-24T17:31:40;61.85;;;21.98;;
40945;SDS011;55635;50.264;11.918;2023-01-24T17:34:21;73.88;;;21.20;;
40945;SDS011;55635;50.264;11.918;2023-01-24T17:37:02;65.13;;;18.33;;
40945;SDS011;55635;50.264;11.918;2023-01-24T17:39:44;52.60;;;17.65;;
40945;SDS011;55635;50.264;11.918;2023-01-24T17:42:24;62.70;;;17.13;;
40945;SDS011;55635;50.264;11.918;2023-01-24T17:45:05;60.30;;;17.63;;
40945;SDS011;55635;50.264;11.918;2023-01-24T17:47:47;53.85;;;17.25;;
40945;SDS011;55635;50.264;11.918;2023-01-24T17:50:28;51.35;;;17.67;;
40945;SDS011;55635;50.264;11.918;2023-01-24T17:53:09;48.45;;;18.33;;
40945;SDS011;55635;50.264;11.918;2023-01-24T17:55:53;64.57;;;18.30;;
40945;SDS011;55635;50.264;11.918;2023-01-24T17:58:35;78.05;;;19.38;;
40945;SDS011;55635;50.264;11.918;2023-01-24T18:01:16;59.88;;;18.13;;
40945;SDS011;55635;50.264;11.918;2023-01-24T18:03:57;49.97;;;18.35;;
40945;SDS011;55635;50.264;11.918;2023-01-24T18:06:38;46.78;;;17.40;;
40945;SDS011;55635;50.264;11.918;2023-01-24T18:09:19;87.28;;;20.40;;
40945;SDS011;55635;50.264;11.918;2023-01-24T18:12:01;47.67;;;18.50;;
40945;SDS011;55635;50.264;11.918;2023-01-24T18:14:43;78.35;;;20.25;;
40945;SDS011;55635;50.264;11.918;2023-01-24T18:17:24;51.50;;;18.35;;
40945;SDS011;55635;50.264;11.918;2023-01-24T18:20:05;54.33;;;18.42;;
40945;SDS011;55635;50.264;11.918;2023-01-24T18:22:47;54.08;;;18.10;;
40945;SDS011;55635;50.264;11.918;2023-01-24T18:25:29;56.50;;;20.02;;
40945;SDS011;55635;50.264;11.918;2023-01-24T18:28:11;71.30;;;19.80;;
40945;SDS011;55635;50.264;11.918;2023-01-24T18:30:52;55.65;;;19.55;;